Nearby METAR Reports

 

KBFI - Boeing Field Seattle, WA, USA
Distance from station: SE 4mi, 7km
Updated: Sun, 07-Aug-2022 8:53am PDT
Clear
Clear
 Wind from varies
Wind: varies 3 mph , 6 km/h
Temperature: 70°F , 21°C
Dew Point: 57°F , 14°C
Humidity: 64%
Barometer: 30.06 inHg , 1017.9 hPa
Clouds: Clear
Visibility: 10 miles , 16 km
2022/08/07 15:53 KBFI 071553Z VRB03KT 10SM CLR 21/14 A3006 RMK AO2 SLP180 T02060144
KSEA - Seattle/Metro, WA, USA
Distance from station: NE 5mi, 8km
Updated: Sun, 07-Aug-2022 8:53am PDT
Clear
Clear
 Wind from NNE
Wind: NNE 5 mph , 7 km/h
Temperature: 72°F , 22°C
Dew Point: 52°F , 11°C
Humidity: 50%
Barometer: 30.07 inHg , 1018.3 hPa
Clouds: Clear
Visibility: 10 miles , 16 km
2022/08/07 15:53 KSEA 071553Z 03004KT 10SM CLR 22/11 A3007 RMK AO2 SLP187 T02170111
 
KTIW - Tacoma, WA, USA
Distance from station: S 30mi, 45km
Updated: Sun, 07-Aug-2022 8:53am PDT
Clear
Clear
 Wind from varies
Wind: varies 3 mph , 6 km/h
Temperature: 68°F , 20°C
Dew Point: 55°F , 13°C
Humidity: 64%
Barometer: 30.07 inHg , 1018.3 hPa
Clouds: Clear
Visibility: 10 miles , 16 km
2022/08/07 15:53 KTIW 071553Z VRB03KT 10SM CLR 20/13 A3007 RMK AO2 SLP180 T02000128
KCLM - Port Angeles, WA, USA
Distance from station: NW 70mi, 100km
Updated: Sun, 07-Aug-2022 8:53am PDT
Clear
Clear
 Wind from E
Wind: E 8 mph , 13 km/h
Temperature: 75°F , 24°C
Dew Point: 52°F , 11°C
Humidity: 44%
Barometer: 30.10 inHg , 1019.3 hPa
Clouds: Clear
Visibility: 10 miles , 16 km
2022/08/07 15:53 KCLM 071553Z AUTO 09007KT 10SM CLR 24/11 A3010 RMK AO2 SLP192 T02390111